createdAt,value
2019-04-27T00:04:16.252Z,27.67
2019-04-27T00:09:50.284Z,25.33
2019-04-27T00:15:13.199Z,26.80
2019-04-27T00:20:53.961Z,26.60
2019-04-27T00:26:18.608Z,30.30
2019-04-27T00:31:43.625Z,31.23
2019-04-27T00:37:45.714Z,33.97
2019-04-27T00:43:09.419Z,28.67
2019-04-27T00:48:33.512Z,31.50
2019-04-27T00:53:58.814Z,27.87
2019-04-27T00:59:40.878Z,30.20
2019-04-27T01:05:13.008Z,29.33
2019-04-27T01:10:36.943Z,31.80
2019-04-27T01:16:00.945Z,25.10
2019-04-27T01:21:24.607Z,26.80
2019-04-27T01:27:00.067Z,27.03
2019-04-27T01:32:25.500Z,33.17
2019-04-27T01:37:49.929Z,33.07
2019-04-27T01:43:14.129Z,32.97
2019-04-27T01:48:38.834Z,36.33
2019-04-27T01:54:03.350Z,33.17
2019-04-27T01:59:28.289Z,32.13
2019-04-27T02:05:22.160Z,34.10
2019-04-27T02:10:47.166Z,34.70
2019-04-27T02:16:12.007Z,32.20
2019-04-27T02:21:35.695Z,28.70
2019-04-27T02:27:00.516Z,26.60
2019-04-27T02:32:31.997Z,27.30
2019-04-27T02:37:56.345Z,23.27
2019-04-27T02:43:25.662Z,20.80
2019-04-27T02:48:59.374Z,21.43
2019-04-27T02:54:15.496Z,21.53
2019-04-27T02:59:40.553Z,17.83
2019-04-27T03:05:05.917Z,19.20
2019-04-27T03:10:31.617Z,18.40
2019-04-27T03:16:05.957Z,19.10
2019-04-27T03:21:49.559Z,17.17
2019-04-27T03:27:16.576Z,19.80
2019-04-27T03:32:42.843Z,21.10
2019-04-27T03:38:06.348Z,17.23
2019-04-27T03:43:31.088Z,18.93
2019-04-27T03:48:55.153Z,19.40
2019-04-27T03:54:40.995Z,18.47
2019-04-27T04:00:15.455Z,23.37
2019-04-27T04:05:40.704Z,22.73
2019-04-27T04:11:12.770Z,24.50
2019-04-27T04:17:02.286Z,25.10
2019-04-27T04:22:23.280Z,23.87
2019-04-27T04:27:46.699Z,22.17
2019-04-27T04:33:11.213Z,21.23
2019-04-27T04:38:35.362Z,23.63
2019-04-27T04:44:12.196Z,23.90
2019-04-27T04:49:34.536Z,20.63
2019-04-27T04:54:59.399Z,25.43
2019-04-27T05:00:24.340Z,29.07
2019-04-27T05:05:50.127Z,27.27
2019-04-27T05:11:15.184Z,26.07
2019-04-27T05:16:40.874Z,29.13
2019-04-27T05:22:05.796Z,26.57
2019-04-27T05:27:31.032Z,30.13
2019-04-27T05:32:54.711Z,32.20
2019-04-27T05:38:19.273Z,33.73
2019-04-27T05:43:49.542Z,35.07
2019-04-27T05:49:44.947Z,35.40
2019-04-27T05:55:10.518Z,34.00
2019-04-27T06:00:34.510Z,36.10
2019-04-27T06:06:01.646Z,34.07
2019-04-27T06:11:25.741Z,32.77
2019-04-27T06:16:51.327Z,33.50
2019-04-27T06:22:14.995Z,32.00
2019-04-27T06:27:39.671Z,31.70
2019-04-27T06:33:03.541Z,32.20
2019-04-27T06:38:27.291Z,30.83
2019-04-27T06:43:52.680Z,35.77
2019-04-27T06:49:17.344Z,35.13
2019-04-27T06:54:41.513Z,36.23
2019-04-27T07:00:06.567Z,41.80
2019-04-27T07:05:31.100Z,40.50
2019-04-27T07:10:56.052Z,38.20
2019-04-27T07:16:19.750Z,41.73
2019-04-27T07:21:44.364Z,42.07
2019-04-27T07:27:09.893Z,37.90
2019-04-27T07:32:35.040Z,33.57
2019-04-27T07:37:58.994Z,32.37
2019-04-27T07:43:31.968Z,30.70
2019-04-27T07:48:55.643Z,29.57
2019-04-27T07:54:20.366Z,30.87
2019-04-27T07:59:44.701Z,35.10
2019-04-27T08:05:09.496Z,32.93
2019-04-27T08:10:34.450Z,33.60
2019-04-27T08:15:59.152Z,32.80
2019-04-27T08:21:23.579Z,34.87
2019-04-27T08:26:54.604Z,33.43
2019-04-27T08:32:23.123Z,41.27
2019-04-27T08:37:49.265Z,36.33
2019-04-27T08:43:13.945Z,41.77
2019-04-27T08:48:39.320Z,38.25
2019-04-27T08:54:05.236Z,38.48
2019-04-27T08:59:29.884Z,36.08
2019-04-27T09:04:54.099Z,38.67
2019-04-27T09:10:26.558Z,39.48
2019-04-27T09:16:05.243Z,40.58
2019-04-27T09:21:48.574Z,47.13
2019-04-27T09:27:12.537Z,41.55
2019-04-27T09:32:38.409Z,43.08
2019-04-27T09:38:03.186Z,43.02
2019-04-27T09:43:26.757Z,39.30
2019-04-27T09:48:51.483Z,41.53
2019-04-27T09:54:16.700Z,43.78
2019-04-27T09:59:40.861Z,40.73
2019-04-27T10:05:06.055Z,35.90
2019-04-27T10:10:29.831Z,28.85
2019-04-27T10:15:54.574Z,28.92
2019-04-27T10:21:19.443Z,26.17
2019-04-27T10:26:44.199Z,24.45
2019-04-27T10:32:09.426Z,27.15
2019-04-27T10:37:33.019Z,28.20
2019-04-27T10:42:57.465Z,22.15
2019-04-27T10:48:22.442Z,23.47
2019-04-27T10:53:47.156Z,25.52
2019-04-27T10:59:11.383Z,23.80
2019-04-27T11:04:50.711Z,25.62
2019-04-27T11:10:16.316Z,27.10
2019-04-27T11:15:40.481Z,23.87
2019-04-27T11:21:05.801Z,19.90
2019-04-27T11:26:30.123Z,23.00
2019-04-27T11:31:55.631Z,20.82
2019-04-27T11:37:24.640Z,22.73
2019-04-27T11:42:49.592Z,20.45
2019-04-27T11:48:16.014Z,20.60
2019-04-27T11:53:39.771Z,19.57
2019-04-27T11:59:04.553Z,18.48
2019-04-27T12:04:28.974Z,19.48
2019-04-27T12:09:52.742Z,16.35
2019-04-27T12:15:17.811Z,18.40
2019-04-27T12:20:41.862Z,16.27
2019-04-27T12:26:05.997Z,15.08
2019-04-27T12:31:33.697Z,16.82
2019-04-27T12:36:57.745Z,17.98
2019-04-27T12:42:22.442Z,15.10
2019-04-27T12:47:47.800Z,18.07
2019-04-27T12:53:16.997Z,18.30
2019-04-27T12:59:04.984Z,16.27
2019-04-27T13:04:28.904Z,20.50
2019-04-27T13:09:53.451Z,19.05
2019-04-27T13:15:18.167Z,17.60
2019-04-27T13:20:43.230Z,20.55
2019-04-27T13:26:07.878Z,15.83
2019-04-27T13:31:31.733Z,10.45
2019-04-27T13:36:57.854Z,8.70
2019-04-27T13:42:22.007Z,8.60
2019-04-27T13:48:03.771Z,6.45
2019-04-27T13:53:28.694Z,7.40
2019-04-27T13:58:52.524Z,7.47
2019-04-27T14:04:16.379Z,6.62
2019-04-27T14:09:40.502Z,7.28
2019-04-27T14:15:04.541Z,5.30
2019-04-27T14:20:28.815Z,7.55
2019-04-27T14:25:53.620Z,6.58
2019-04-27T14:31:18.927Z,11.55
2019-04-27T14:36:42.737Z,8.60
2019-04-27T14:42:08.338Z,12.55
2019-04-27T14:47:33.617Z,9.55
2019-04-27T14:53:01.633Z,7.97
2019-04-27T14:58:22.999Z,13.53
2019-04-27T15:03:47.105Z,12.15
2019-04-27T15:09:13.359Z,12.05
2019-04-27T15:14:38.797Z,12.82
2019-04-27T15:20:07.742Z,12.90
2019-04-27T15:25:35.102Z,10.13
2019-04-27T15:31:23.523Z,13.32
2019-04-27T15:37:07.950Z,12.30
2019-04-27T15:42:41.554Z,9.93
2019-04-27T15:48:03.400Z,8.65
2019-04-27T15:53:28.408Z,6.22
2019-04-27T15:58:55.763Z,9.50
2019-04-27T16:04:19.559Z,10.82
2019-04-27T16:09:44.528Z,12.85
2019-04-27T16:15:08.646Z,14.68
2019-04-27T16:20:34.042Z,14.23
2019-04-27T16:26:00.597Z,9.98
2019-04-27T16:31:29.171Z,14.40
2019-04-27T16:36:50.505Z,12.43
2019-04-27T16:42:16.105Z,14.85
2019-04-27T16:47:40.432Z,14.18
2019-04-27T16:53:05.084Z,11.28
2019-04-27T16:58:31.875Z,13.05
2019-04-27T17:03:58.877Z,12.23
2019-04-27T17:09:22.579Z,11.30
2019-04-27T17:15:05.878Z,9.83
2019-04-27T17:20:30.329Z,10.75
2019-04-27T17:25:57.165Z,12.15
2019-04-27T17:31:24.224Z,10.08
2019-04-27T17:36:54.470Z,10.10
2019-04-27T17:42:14.242Z,11.05
2019-04-27T17:47:38.904Z,14.97
2019-04-27T17:53:03.142Z,12.68
2019-04-27T17:58:28.651Z,15.20
2019-04-27T18:04:00.092Z,14.67
2019-04-27T18:09:19.310Z,12.58
2019-04-27T18:14:43.429Z,12.30
2019-04-27T18:20:11.845Z,17.40
2019-04-27T18:25:43.553Z,17.40
2019-04-27T18:31:11.427Z,20.12
2019-04-27T18:36:37.891Z,15.40
2019-04-27T18:42:02.870Z,14.67
2019-04-27T18:47:27.024Z,13.87
2019-04-27T18:52:55.010Z,13.60
2019-04-27T18:58:19.370Z,12.00
2019-04-27T19:03:44.076Z,14.13
2019-04-27T19:09:09.138Z,14.20
2019-04-27T19:14:33.741Z,13.30
2019-04-27T19:19:57.403Z,15.23
2019-04-27T19:25:42.410Z,16.07
2019-04-27T19:31:09.712Z,7.63
2019-04-27T19:36:33.459Z,6.53
2019-04-27T19:42:03.445Z,8.20
2019-04-27T19:47:23.916Z,6.87
2019-04-27T19:52:47.769Z,10.63
2019-04-27T19:58:11.921Z,4.83
2019-04-27T20:03:45.608Z,4.83
2019-04-27T20:09:24.185Z,5.63
2019-04-27T20:14:57.524Z,4.37
2019-04-27T20:20:21.933Z,4.30
2019-04-27T20:25:46.060Z,4.27
2019-04-27T20:31:10.947Z,3.60
2019-04-27T20:36:35.560Z,3.70
2019-04-27T20:41:59.768Z,2.43
2019-04-27T20:47:23.924Z,4.07
2019-04-27T20:52:57.298Z,3.83
2019-04-27T20:58:21.796Z,6.00
2019-04-27T21:03:52.708Z,4.43
2019-04-27T21:09:18.869Z,5.73
2019-04-27T21:14:43.331Z,8.13
2019-04-27T21:20:08.737Z,5.10
2019-04-27T21:25:33.812Z,6.47
2019-04-27T21:30:58.160Z,5.47
2019-04-27T21:36:21.875Z,7.70
2019-04-27T21:41:46.800Z,7.13
2019-04-27T21:47:14.263Z,6.90
2019-04-27T21:52:41.956Z,10.93
2019-04-27T21:58:05.921Z,6.27
2019-04-27T22:03:31.803Z,7.07
2019-04-27T22:08:55.731Z,5.07
2019-04-27T22:14:21.596Z,6.23
2019-04-27T22:19:46.734Z,10.20
2019-04-27T22:25:11.806Z,8.40
2019-04-27T22:30:37.190Z,6.87
2019-04-27T22:36:01.924Z,5.57
2019-04-27T22:41:44.563Z,6.77
2019-04-27T22:47:08.635Z,8.07
2019-04-27T22:52:33.752Z,6.33
2019-04-27T22:58:04.431Z,8.37
2019-04-27T23:03:32.117Z,10.47
2019-04-27T23:08:55.987Z,7.67
2019-04-27T23:14:21.174Z,7.30
2019-04-27T23:19:44.659Z,8.10
2019-04-27T23:25:11.258Z,6.47
2019-04-27T23:30:52.004Z,8.23
2019-04-27T23:36:15.603Z,7.53
2019-04-27T23:41:39.475Z,8.50
2019-04-27T23:47:03.311Z,9.47
2019-04-27T23:52:46.232Z,7.57
2019-04-27T23:58:10.628Z,11.17
